KPGV/PGV METAR and TAF weather

Enter ICAO airport designator
Station Type Date Time Source
KPGV METAR 2020/02/25 11:55 UTC NOAA

KPGV 251155Z AUTO 09003KT 10SM SCT006 BKN028 12/12 A2988 RMK AO2


Station Type Date Time Source
KPGV Decoded METAR 2020/02/25 11:55 UTC NOAA

Pitt-Greenville Airport, NC, United States (KPGV) 35-38N 077-24W
Feb 25, 2020 - 06:55 AM EST / 2020.02.25 1155 UTC
Wind: from the E (090 degrees) at 3 MPH (3 KT):0
Visibility: 10 mile(s):0
Sky conditions: mostly cloudy
Temperature: 53 F (12 C)
Dew Point: 53 F (12 C)
Relative Humidity: 100%
Pressure (altimeter): 29.88 in. Hg (1011 hPa)
ob: KPGV 251155Z AUTO 09003KT 10SM SCT006 BKN028 12/12 A2988 RMK AO2
cycle: 12

Station Type Date Time Source
KPGV TAF 2020/02/25 12:54 UTC NOAA

TAF KPGV 251140Z 2512/2612 VRB05KT P6SM VCSH BKN007
TEMPO 2512/2514 SCT005
FM251800 22005KT P6SM OVC010
FM252300 20003KT P6SM BKN035
FM260200 23002KT P6SM OVC020
FM260700 00000KT 3SM BR OVC007
AMD LTD TO CLD VIS AND WIND

Example: see airport list